Terminal Aerodrome Forecast
Issued by NWS

Home | Current Version | Previous Version | Text Only | Print | Product List | Glossary On
Versions: 1 2 3 4 5 6 7 8 9 10 11 12
820
FTUS45 KREV 052332
TAFMMH
TAF
KMMH 052332Z 0600/0624 29010G18KT P6SM SCT100 OVC220
     FM060400 27008KT P6SM SCT200
     FM061500 24015G24KT P6SM BKN200
     FM062000 26020G32KT P6SM BKN200=

USA.gov is the U.S. government's official web portal to all federal, state and local government web resources and services.